メインページ
METAR-TAF:

METAR-TAF

空港 :

タブリーズ国際空港

タブリーズ, イラン

緯度: 38-05N, 経度: 046-17E, 海抜: 1367m

現時点の気象観測

当レポートは38分前の17:30(UTC)に作成
変向風 2kt
気温 2°C
湿度 44%
気圧 1029 hPa
視程10km以上
高度3500ftの雲はほとんどない

METAR: OITT 171730Z VRB02KT 9999 FEW035 02/M09 Q1028 A3038

時間: 21:38 (18:08 UTC)

予報

当レポートは6時間38分前の11:30(UTC)に作成
予報は17日の 12時(UTC)から 18日の 18時(UTC)まで有効
の風 8kt
視程: 8000m
高度3000ftの雲はほとんどない

TAF: OITT 171130Z 1712/1818 08008KT 8000 FEW030

4,000以上の空港の気象観測と天気予報(METAR報とTAF報)

利用可能な観測所は地図上に黄色い丸と赤い丸で示す。

丸の上にカーソルを重ねると観測所名を参照できる。

次にクリックすると気象観測と天気予報を参照できる。

マップの切り替え:黒色「×」印の緑ボタンをクリックして拡大、「-」印の緑ボタンをクリックして縮小、緑色の三角印をクリックして隣りの地図に切り替え


METAR-TAF: